createdAt,value
2022-11-29T00:02:46.814Z,97553.72
2022-11-29T00:07:48.184Z,97549.28
2022-11-29T00:12:49.561Z,97543.53
2022-11-29T00:17:50.795Z,97548.06
2022-11-29T00:22:52.062Z,97550.19
2022-11-29T00:27:53.361Z,97542.25
2022-11-29T00:32:54.670Z,97534.94
2022-11-29T00:37:55.953Z,97535.69
2022-11-29T00:42:57.262Z,97535.09
2022-11-29T00:47:58.718Z,97526.22
2022-11-29T00:52:59.945Z,97526.22
2022-11-29T00:58:01.187Z,97525.06
2022-11-29T01:03:02.415Z,97530.84
2022-11-29T01:08:03.708Z,97524.97
2022-11-29T01:13:04.939Z,97516.56
2022-11-29T01:18:06.234Z,97523.06
2022-11-29T01:23:07.533Z,97532.47
2022-11-29T01:28:08.786Z,97531.84
2022-11-29T01:33:10.021Z,97530.13
2022-11-29T01:38:11.372Z,97532.13
2022-11-29T01:43:12.608Z,97534.25
2022-11-29T01:48:13.837Z,97531.06
2022-11-29T01:53:15.102Z,97525.97
2022-11-29T01:58:16.469Z,97522.19
2022-11-29T02:03:17.766Z,97529.16
2022-11-29T02:08:18.990Z,97533.63
2022-11-29T02:13:20.255Z,97526.63
2022-11-29T02:18:21.509Z,97524.72
2022-11-29T02:23:22.818Z,97532.53
2022-11-29T02:28:24.105Z,97542.06
2022-11-29T02:33:25.323Z,97549.44
2022-11-29T02:38:26.580Z,97551.97
2022-11-29T02:43:27.864Z,97550.56
2022-11-29T02:48:29.145Z,97550.13
2022-11-29T02:53:31.045Z,97542.53
2022-11-29T02:58:32.337Z,97541.56
2022-11-29T03:03:33.582Z,97547.34
2022-11-29T03:08:35.310Z,97553.06
2022-11-29T03:13:36.561Z,97556.78
2022-11-29T03:18:37.781Z,97560.69
2022-11-29T03:23:39.073Z,97564.66
2022-11-29T03:28:40.323Z,97564.25
2022-11-29T03:33:41.578Z,97565.22
2022-11-29T03:38:42.876Z,97567.59
2022-11-29T03:43:44.135Z,97570.22
2022-11-29T03:48:45.440Z,97577.72
2022-11-29T03:53:46.687Z,97573.34
2022-11-29T03:58:47.923Z,97576.22
2022-11-29T04:03:49.221Z,97571.72
2022-11-29T04:08:50.434Z,97577.56
2022-11-29T04:13:51.700Z,97567.59
2022-11-29T04:18:53.177Z,97573.53
2022-11-29T04:23:54.500Z,97572.91
2022-11-29T04:28:55.758Z,97568.94
2022-11-29T04:33:57.072Z,97575.50
2022-11-29T04:38:58.421Z,97575.63
2022-11-29T04:43:59.632Z,97575.41
2022-11-29T04:49:00.875Z,97575.78
2022-11-29T04:54:02.180Z,97575.63
2022-11-29T04:59:03.480Z,97578.22
2022-11-29T05:04:04.765Z,97579.22
2022-11-29T05:09:05.997Z,97581.91
2022-11-29T05:14:07.296Z,97591.66
2022-11-29T05:19:08.559Z,97592.03
2022-11-29T05:24:09.828Z,97610.88
2022-11-29T05:29:11.045Z,97604.06
2022-11-29T05:34:12.249Z,97607.09
2022-11-29T05:39:13.538Z,97619.28
2022-11-29T05:44:14.822Z,97617.63
2022-11-29T05:49:16.292Z,97625.59
2022-11-29T05:54:17.561Z,97636.75
2022-11-29T05:59:18.777Z,97638.84
2022-11-29T06:04:20.037Z,97646.03
2022-11-29T06:09:21.306Z,97658.28
2022-11-29T06:14:22.901Z,97671.72
2022-11-29T06:19:24.138Z,97675.13
2022-11-29T06:24:26.199Z,97676.50
2022-11-29T06:29:27.590Z,97681.56
2022-11-29T06:34:30.840Z,97690.22
2022-11-29T06:39:32.316Z,97691.72
2022-11-29T06:44:33.564Z,97693.97
2022-11-29T06:49:34.794Z,97695.81
2022-11-29T06:54:36.016Z,97697.53
2022-11-29T06:59:37.283Z,97694.69
2022-11-29T07:04:45.419Z,97705.84
2022-11-29T07:09:47.587Z,97700.09
2022-11-29T07:14:48.812Z,97710.94
2022-11-29T07:19:50.069Z,97709.16
2022-11-29T07:24:51.343Z,97713.31
2022-11-29T07:29:52.613Z,97711.66
2022-11-29T07:34:53.889Z,97719.19
2022-11-29T07:39:55.186Z,97718.22
2022-11-29T07:44:56.473Z,97715.72
2022-11-29T07:49:57.759Z,97720.38
2022-11-29T07:54:58.975Z,97720.88
2022-11-29T08:00:00.487Z,97724.56
2022-11-29T08:05:01.861Z,97719.84
2022-11-29T08:10:03.090Z,97722.88
2022-11-29T08:15:04.377Z,97729.31
2022-11-29T08:20:05.588Z,97729.06
2022-11-29T08:25:07.194Z,97733.88
2022-11-29T08:30:08.436Z,97729.44
2022-11-29T08:35:09.703Z,97739.75
2022-11-29T08:40:10.977Z,97738.94
2022-11-29T08:45:14.646Z,97731.75
2022-11-29T08:50:17.155Z,97729.25
2022-11-29T08:55:19.949Z,97738.38
2022-11-29T09:00:21.317Z,97741.25
2022-11-29T09:05:22.616Z,97750.81
2022-11-29T09:10:23.886Z,97761.41
2022-11-29T09:15:25.143Z,97761.16
2022-11-29T09:20:26.440Z,97763.06
2022-11-29T09:25:27.720Z,97764.94
2022-11-29T09:30:31.371Z,97774.91
2022-11-29T09:35:32.585Z,97770.03
2022-11-29T09:40:33.888Z,97763.44
2022-11-29T09:45:35.196Z,97766.59
2022-11-29T09:50:36.502Z,97768.25
2022-11-29T09:55:37.771Z,97763.66
2022-11-29T10:00:39.000Z,97762.94
2022-11-29T10:05:40.219Z,97763.25
2022-11-29T10:10:41.600Z,97761.56
2022-11-29T10:15:42.854Z,97757.38
2022-11-29T10:20:48.783Z,97761.72
2022-11-29T10:25:50.527Z,97759.69
2022-11-29T10:30:51.814Z,97762.78
2022-11-29T10:35:53.081Z,97761.09
2022-11-29T10:40:54.358Z,97756.72
2022-11-29T10:45:56.415Z,97753.75
2022-11-29T10:50:57.738Z,97752.16
2022-11-29T10:55:59.020Z,97751.41
2022-11-29T11:01:00.994Z,97756.28
2022-11-29T11:06:02.367Z,97756.97
2022-11-29T11:11:04.458Z,97759.53
2022-11-29T11:16:05.665Z,97758.53
2022-11-29T11:21:06.913Z,97754.50
2022-11-29T11:26:08.138Z,97756.28
2022-11-29T11:31:09.421Z,97760.22
2022-11-29T11:36:10.868Z,97761.56
2022-11-29T11:41:12.133Z,97762.63
2022-11-29T11:46:17.832Z,97763.69
2022-11-29T11:51:19.478Z,97762.63
2022-11-29T11:56:20.705Z,97754.22
2022-11-29T12:01:22.008Z,97754.16
2022-11-29T12:06:23.337Z,97765.44
2022-11-29T12:11:24.555Z,97767.50
2022-11-29T12:16:28.287Z,97751.03
2022-11-29T12:21:29.551Z,97755.78
2022-11-29T12:31:55.120Z,97760.09
2022-11-29T12:36:56.515Z,97752.78
2022-11-29T12:41:57.978Z,97749.97
2022-11-29T12:47:28.184Z,97754.91
2022-11-29T12:52:20.418Z,97760.50
2022-11-29T12:57:21.785Z,97767.09
2022-11-29T13:02:23.038Z,97765.91
2022-11-29T13:07:24.325Z,97764.81
2022-11-29T13:12:25.662Z,97770.91
2022-11-29T13:17:27.072Z,97776.66
2022-11-29T13:22:28.339Z,97773.66
2022-11-29T13:27:29.602Z,97780.00
2022-11-29T13:32:30.874Z,97775.41
2022-11-29T13:37:32.198Z,97791.53
2022-11-29T13:42:33.433Z,97783.53
2022-11-29T13:47:34.724Z,97793.81
2022-11-29T13:52:36.010Z,97810.34
2022-11-29T13:57:54.140Z,97804.47
2022-11-29T14:02:58.657Z,97788.97
2022-11-29T14:07:59.994Z,97784.81
2022-11-29T14:13:01.963Z,97793.00
2022-11-29T14:18:03.362Z,97789.94
2022-11-29T14:23:04.766Z,97790.66
2022-11-29T14:28:06.135Z,97787.94
2022-11-29T14:33:07.608Z,97790.75
2022-11-29T14:38:08.865Z,97793.06
2022-11-29T14:43:10.118Z,97790.78
2022-11-29T14:48:11.495Z,97793.44
2022-11-29T14:53:12.938Z,97794.66
2022-11-29T14:58:14.283Z,97794.72
2022-11-29T15:03:15.602Z,97801.91
2022-11-29T15:08:16.988Z,97808.53
2022-11-29T15:13:18.261Z,97809.94
2022-11-29T15:18:19.515Z,97819.50
2022-11-29T15:23:20.770Z,97820.91
2022-11-29T15:28:22.394Z,97819.38
2022-11-29T15:33:23.753Z,97826.59
2022-11-29T15:38:25.148Z,97829.94
2022-11-29T15:43:26.555Z,97835.53
2022-11-29T15:48:27.994Z,97827.28
2022-11-29T15:53:29.269Z,97840.44
2022-11-29T15:58:30.506Z,97848.47
2022-11-29T16:03:32.342Z,97836.59
2022-11-29T16:08:33.621Z,97845.44
2022-11-29T16:13:35.300Z,97832.78
2022-11-29T16:18:36.580Z,97838.09
2022-11-29T16:23:37.860Z,97844.47
2022-11-29T16:28:39.130Z,97843.69
2022-11-29T16:33:40.441Z,97853.31
2022-11-29T16:38:41.698Z,97852.19
2022-11-29T16:43:43.385Z,97858.97
2022-11-29T16:48:44.572Z,97868.94
2022-11-29T16:53:47.859Z,97874.59
2022-11-29T16:59:21.052Z,97872.38
2022-11-29T17:04:10.310Z,97873.78
2022-11-29T17:09:11.558Z,97889.97
2022-11-29T17:14:12.909Z,97901.41
2022-11-29T17:19:14.457Z,97898.97
2022-11-29T17:24:15.748Z,97904.09
2022-11-29T17:29:17.080Z,97909.38
2022-11-29T17:34:18.686Z,97919.59
2022-11-29T17:39:21.566Z,97911.72
2022-11-29T17:44:22.915Z,97918.59
2022-11-29T17:49:24.143Z,97913.25
2022-11-29T17:54:25.457Z,97901.59
2022-11-29T17:59:26.749Z,97897.94
2022-11-29T18:04:28.009Z,97887.94
2022-11-29T18:09:29.601Z,97901.94
2022-11-29T18:14:31.429Z,97913.31
2022-11-29T18:19:32.780Z,97930.63
2022-11-29T18:24:34.018Z,97928.19
2022-11-29T18:29:39.103Z,97928.22
2022-11-29T18:34:40.766Z,97929.97
2022-11-29T18:39:42.131Z,97926.91
2022-11-29T18:44:43.585Z,97928.59
2022-11-29T18:49:44.889Z,97925.81
2022-11-29T18:54:46.329Z,97940.00
2022-11-29T18:59:47.785Z,97935.75
2022-11-29T19:04:50.232Z,97933.69
2022-11-29T19:09:51.452Z,97940.72
2022-11-29T19:14:53.112Z,97939.59
2022-11-29T19:19:54.640Z,97937.94
2022-11-29T19:24:55.889Z,97953.09
2022-11-29T19:29:57.165Z,97952.97
2022-11-29T19:34:58.481Z,97950.44
2022-11-29T19:39:59.704Z,97940.72
2022-11-29T19:45:16.370Z,97945.56
2022-11-29T19:50:18.602Z,97945.38
2022-11-29T19:55:19.965Z,97946.22
2022-11-29T20:00:21.226Z,97962.59
2022-11-29T20:05:22.482Z,97968.63
2022-11-29T20:10:23.732Z,97973.66
2022-11-29T20:15:24.972Z,97971.06
2022-11-29T20:20:26.394Z,97971.78
2022-11-29T20:25:27.763Z,97961.13
2022-11-29T20:30:29.014Z,97965.78
2022-11-29T20:35:34.922Z,97978.91
2022-11-29T20:40:36.210Z,97977.78
2022-11-29T20:45:37.513Z,97978.00
2022-11-29T20:50:38.756Z,97971.25
2022-11-29T20:55:45.021Z,97983.22
2022-11-29T21:00:49.066Z,97988.00
2022-11-29T21:05:50.353Z,97993.72
2022-11-29T21:10:51.562Z,97992.78
2022-11-29T21:15:53.438Z,97994.91
2022-11-29T21:20:54.735Z,97999.59
2022-11-29T21:25:56.399Z,97993.41
2022-11-29T21:30:58.911Z,98000.25
2022-11-29T21:36:01.692Z,98009.53
2022-11-29T21:41:03.144Z,98011.22
2022-11-29T21:46:04.717Z,98004.31
2022-11-29T21:51:06.233Z,98002.81
2022-11-29T21:56:07.537Z,98004.28
2022-11-29T22:01:09.037Z,97985.13
2022-11-29T22:06:10.435Z,97993.88
2022-11-29T22:11:11.738Z,97996.41
2022-11-29T22:16:12.971Z,98012.50
2022-11-29T22:21:14.271Z,98005.97
2022-11-29T22:26:15.584Z,97995.72
2022-11-29T22:31:16.902Z,97999.94
2022-11-29T22:36:18.249Z,97999.28
2022-11-29T22:41:19.569Z,97997.72
2022-11-29T22:46:20.882Z,97996.38
2022-11-29T22:51:22.355Z,98001.47
2022-11-29T22:56:23.630Z,97995.16
2022-11-29T23:01:24.927Z,97996.97
2022-11-29T23:06:26.221Z,97993.38
2022-11-29T23:11:27.452Z,97990.88
2022-11-29T23:16:28.850Z,98001.91
2022-11-29T23:21:30.211Z,97993.25
2022-11-29T23:26:31.480Z,97983.00
2022-11-29T23:31:32.742Z,97977.03
2022-11-29T23:36:34.035Z,97975.16
2022-11-29T23:41:35.330Z,97969.06
2022-11-29T23:46:36.636Z,97973.31
2022-11-29T23:51:37.884Z,97972.41
2022-11-29T23:56:39.131Z,97956.19
